Time;durP1;ratioP1;P1;durP2;ratioP2;P2;SDS_P1;SDS_P2;PMS_P1;PMS_P2;Temp;Humidity;BMP_temperature;BMP_pressure;BME280_temperature;BME280_humidity;BME280_pressure;Samples;Min_cycle;Max_cycle;Signal;HPM_P1;HPM_P2
2021/10/18 00:01:06;;;;;;;9.38;4.22;;;22.30;43.00;;;;;;1859831;77;21526;-31
2021/10/18 00:03:34;;;;;;;6.22;4.15;;;22.30;43.00;;;;;;1859731;77;21088;-31
2021/10/18 00:06:01;;;;;;;9.08;3.58;;;22.30;43.10;;;;;;1859805;77;21478;-30
2021/10/18 00:08:29;;;;;;;9.83;4.25;;;22.30;43.00;;;;;;1859731;76;21542;-41
2021/10/18 00:10:56;;;;;;;7.75;4.30;;;22.30;43.00;;;;;;1859931;77;21553;-41
2021/10/18 00:13:24;;;;;;;6.33;3.70;;;22.30;42.90;;;;;;1859832;77;21115;-43
2021/10/18 00:15:51;;;;;;;7.42;3.77;;;22.40;43.00;;;;;;1859858;77;21533;-44
2021/10/18 00:18:19;;;;;;;9.60;3.77;;;22.40;42.90;;;;;;1859736;77;21081;-45
2021/10/18 00:20:46;;;;;;;8.30;3.70;;;22.40;42.90;;;;;;1859779;77;21054;-42
2021/10/18 00:23:14;;;;;;;8.08;4.15;;;22.40;42.80;;;;;;1859785;77;21053;-40
2021/10/18 00:25:41;;;;;;;9.33;3.70;;;22.40;42.80;;;;;;1859832;77;21542;-41
2021/10/18 00:28:08;;;;;;;6.30;3.45;;;22.40;42.90;;;;;;1860067;77;21053;-43
2021/10/18 00:30:36;;;;;;;7.42;3.60;;;22.40;42.90;;;;;;1859854;77;21610;-46
2021/10/18 00:33:04;;;;;;;11.28;3.35;;;22.30;42.90;;;;;;1859715;77;21064;-40
2021/10/18 00:35:31;;;;;;;8.23;3.77;;;22.30;43.00;;;;;;1859911;77;21085;-45
2021/10/18 00:37:58;;;;;;;8.80;3.72;;;22.30;43.00;;;;;;1859771;77;21049;-40
2021/10/18 00:40:26;;;;;;;7.58;3.65;;;22.40;43.00;;;;;;1859867;77;21537;-41
2021/10/18 00:42:53;;;;;;;8.10;3.50;;;22.40;43.00;;;;;;1859734;77;21061;-42
2021/10/18 00:45:21;;;;;;;12.30;3.55;;;22.40;43.00;;;;;;1859812;77;21135;-44
2021/10/18 00:47:49;;;;;;;9.83;4.05;;;22.40;42.90;;;;;;1859849;77;21529;-41
2021/10/18 00:50:17;;;;;;;9.95;4.00;;;22.40;42.90;;;;;;1854208;77;21612;-44
2021/10/18 00:52:45;;;;;;;9.13;3.92;;;22.40;42.90;;;;;;1850821;77;21069;-42
2021/10/18 00:55:13;;;;;;;9.80;3.90;;;22.40;42.90;;;;;;1850932;77;21520;-43
2021/10/18 00:57:40;;;;;;;7.53;3.55;;;22.40;42.90;;;;;;1850907;77;21528;-43
2021/10/18 01:00:09;;;;;;;9.40;3.47;;;22.40;42.90;;;;;;1850907;77;21521;-41
2021/10/18 01:02:37;;;;;;;10.13;3.98;;;22.40;42.80;;;;;;1850913;77;21526;-42
2021/10/18 01:05:06;;;;;;;9.10;3.95;;;22.40;42.90;;;;;;1850816;77;21056;-46
2021/10/18 01:07:35;;;;;;;6.40;3.90;;;22.40;42.90;;;;;;1850814;76;21195;-42
2021/10/18 01:10:03;;;;;;;7.95;3.60;;;22.40;43.00;;;;;;1850929;77;21576;-42
2021/10/18 01:12:30;;;;;;;11.20;4.28;;;22.40;43.00;;;;;;1850857;77;21624;-44
2021/10/18 01:14:58;;;;;;;8.10;4.50;;;22.40;43.00;;;;;;1850768;77;21144;-41
2021/10/18 01:17:25;;;;;;;11.55;4.70;;;22.40;42.70;;;;;;1850733;77;21062;-35
2021/10/18 01:19:53;;;;;;;8.60;4.03;;;22.30;42.60;;;;;;1850805;77;21627;-35
2021/10/18 01:22:20;;;;;;;10.23;3.90;;;22.30;42.70;;;;;;1850891;77;21633;-35
2021/10/18 01:24:48;;;;;;;5.72;4.00;;;22.30;42.90;;;;;;1850830;77;21127;-34
2021/10/18 01:27:16;;;;;;;8.53;3.80;;;22.40;42.90;;;;;;1850742;77;21073;-35
2021/10/18 01:29:43;;;;;;;6.62;3.90;;;22.30;42.90;;;;;;1850845;77;21585;-34
2021/10/18 01:32:10;;;;;;;5.25;3.70;;;22.40;42.90;;;;;;1850826;77;21646;-34
2021/10/18 01:34:38;;;;;;;9.73;4.10;;;22.40;42.90;;;;;;1851043;77;21467;-35
2021/10/18 01:37:06;;;;;;;12.47;4.83;;;22.40;42.90;;;;;;1850915;77;21077;-34
2021/10/18 01:39:33;;;;;;;13.03;4.28;;;22.40;43.10;;;;;;1850859;77;21523;-34
2021/10/18 01:42:01;;;;;;;8.78;3.95;;;22.30;43.10;;;;;;1850743;77;21196;-35
2021/10/18 01:44:29;;;;;;;9.73;3.67;;;22.40;43.00;;;;;;1850774;77;21523;-34
2021/10/18 01:46:57;;;;;;;9.28;3.70;;;22.40;43.10;;;;;;1850759;77;21135;-34
2021/10/18 01:49:24;;;;;;;6.50;3.50;;;22.40;43.00;;;;;;1850785;77;21089;-35
2021/10/18 01:51:52;;;;;;;9.08;4.35;;;22.40;42.90;;;;;;1850771;77;21607;-35
2021/10/18 01:54:20;;;;;;;12.55;4.00;;;22.40;43.00;;;;;;1850866;77;21515;-34
2021/10/18 01:56:47;;;;;;;10.05;3.65;;;22.40;43.10;;;;;;1850821;77;21636;-35
2021/10/18 01:59:14;;;;;;;12.45;4.33;;;22.40;43.10;;;;;;1850786;77;21576;-35
2021/10/18 02:01:42;;;;;;;5.40;3.52;;;22.40;43.10;;;;;;1850789;77;21068;-34
2021/10/18 02:04:09;;;;;;;9.30;3.67;;;22.40;43.20;;;;;;1850944;77;21073;-35
2021/10/18 02:06:37;;;;;;;8.53;4.20;;;22.40;43.10;;;;;;1850731;76;21050;-34
2021/10/18 02:09:05;;;;;;;8.10;3.52;;;22.40;43.20;;;;;;1850907;77;21472;-34
2021/10/18 02:11:33;;;;;;;9.43;4.12;;;22.40;43.10;;;;;;1850956;77;21498;-35
2021/10/18 02:14:00;;;;;;;8.30;3.58;;;22.40;43.10;;;;;;1850962;77;21229;-34
2021/10/18 02:16:27;;;;;;;11.65;4.25;;;22.40;43.10;;;;;;1850947;77;21086;-34
2021/10/18 02:18:55;;;;;;;6.78;4.00;;;22.40;43.10;;;;;;1850856;77;21076;-34
2021/10/18 02:21:22;;;;;;;8.28;3.70;;;22.40;43.00;;;;;;1850940;77;21483;-35
2021/10/18 02:23:50;;;;;;;7.75;3.47;;;22.40;43.00;;;;;;1850802;77;21367;-34
2021/10/18 02:26:17;;;;;;;14.10;3.87;;;22.40;43.00;;;;;;1850935;77;21558;-34
2021/10/18 02:28:45;;;;;;;11.35;4.60;;;22.40;42.80;;;;;;1850961;77;21147;-34
2021/10/18 02:31:13;;;;;;;8.73;4.17;;;22.40;42.60;;;;;;1850905;77;21573;-34
2021/10/18 02:33:40;;;;;;;8.98;4.25;;;22.40;42.50;;;;;;1850986;77;21581;-35
2021/10/18 02:36:08;;;;;;;11.57;4.35;;;22.40;42.70;;;;;;1850915;77;21588;-35
2021/10/18 02:38:38;;;;;;;7.33;3.98;;;22.30;42.70;;;;;;1850987;77;21159;-35
2021/10/18 02:41:05;;;;;;;10.43;4.40;;;22.40;42.90;;;;;;1850724;77;21068;-34
2021/10/18 02:43:32;;;;;;;7.78;3.90;;;22.30;43.00;;;;;;1850965;77;21491;-34
2021/10/18 02:46:00;;;;;;;10.18;3.70;;;22.30;43.00;;;;;;1850926;77;21085;-34
2021/10/18 02:48:27;;;;;;;7.20;3.95;;;22.30;42.90;;;;;;1850845;77;21088;-34
2021/10/18 02:50:55;;;;;;;8.35;4.50;;;22.30;43.00;;;;;;1850787;77;21580;-35
2021/10/18 02:53:22;;;;;;;9.53;4.37;;;22.30;43.00;;;;;;1850963;77;21109;-34
2021/10/18 02:55:50;;;;;;;9.48;4.25;;;22.30;43.10;;;;;;1850919;77;21502;-35
2021/10/18 02:58:17;;;;;;;7.65;3.80;;;22.30;43.10;;;;;;1850886;77;21089;-35
2021/10/18 03:00:45;;;;;;;9.13;4.20;;;22.30;43.00;;;;;;1850841;77;21580;-34
2021/10/18 03:03:12;;;;;;;7.75;4.03;;;22.40;42.90;;;;;;1850968;77;21553;-35
2021/10/18 03:05:40;;;;;;;8.63;4.47;;;22.40;42.90;;;;;;1850835;77;21541;-35
2021/10/18 03:08:07;;;;;;;9.85;3.80;;;22.40;42.80;;;;;;1850920;76;21105;-35
2021/10/18 03:10:39;;;;;;;12.03;4.47;;;22.40;42.30;;;;;;1850835;77;21085;-35
2021/10/18 03:13:04;;;;;;;6.12;3.67;;;22.40;42.80;;;;;;1850036;77;21076;-35
2021/10/18 03:15:31;;;;;;;10.60;3.95;;;22.40;42.80;;;;;;1850920;77;21560;-35
2021/10/18 03:17:59;;;;;;;6.80;4.30;;;22.40;42.80;;;;;;1851021;77;21509;-35
2021/10/18 03:20:26;;;;;;;8.80;4.50;;;22.40;42.70;;;;;;1850783;77;21464;-35
2021/10/18 03:22:54;;;;;;;8.50;4.08;;;22.40;42.70;;;;;;1850798;77;21073;-35
2021/10/18 03:25:21;;;;;;;6.65;3.72;;;22.40;42.70;;;;;;1850824;77;21569;-34
2021/10/18 03:27:49;;;;;;;9.03;4.03;;;22.40;42.60;;;;;;1850970;77;21467;-34
2021/10/18 03:30:16;;;;;;;7.90;3.72;;;22.40;42.70;;;;;;1850974;77;21534;-34
2021/10/18 03:32:45;;;;;;;8.78;4.03;;;22.40;42.60;;;;;;1850948;77;21530;-34
2021/10/18 03:35:13;;;;;;;7.97;4.53;;;22.40;42.80;;;;;;1850894;77;21502;-34
2021/10/18 03:37:40;;;;;;;9.55;4.28;;;22.40;42.80;;;;;;1850911;77;21162;-33
2021/10/18 03:40:11;;;;;;;14.73;4.42;;;22.40;42.80;;;;;;1850938;77;21530;-34
2021/10/18 03:42:39;;;;;;;10.48;4.33;;;22.40;42.90;;;;;;1850623;77;21522;-34
2021/10/18 03:45:09;;;;;;;9.80;4.00;;;22.40;43.00;;;;;;1850783;77;21542;-34
2021/10/18 03:47:37;;;;;;;8.70;4.47;;;22.40;43.10;;;;;;1849971;77;21065;-34
2021/10/18 03:50:05;;;;;;;8.98;3.62;;;22.40;43.10;;;;;;1850788;77;21541;-33
2021/10/18 03:52:32;;;;;;;11.30;3.80;;;22.40;43.40;;;;;;1859486;77;21061;-34
2021/10/18 03:55:00;;;;;;;7.65;3.72;;;22.40;43.00;;;;;;1859579;77;21130;-33
2021/10/18 03:57:27;;;;;;;11.05;4.12;;;22.40;43.00;;;;;;1859706;77;21466;-34
2021/10/18 03:59:55;;;;;;;10.68;3.98;;;22.40;42.90;;;;;;1859742;77;21501;-35
2021/10/18 04:02:23;;;;;;;8.75;3.95;;;22.40;42.90;;;;;;1859618;77;21123;-34
2021/10/18 04:04:51;;;;;;;8.00;3.77;;;22.40;43.00;;;;;;1859795;77;21773;-35
2021/10/18 04:07:18;;;;;;;10.30;4.30;;;22.40;43.00;;;;;;1859653;76;21628;-35
2021/10/18 04:09:46;;;;;;;8.80;4.25;;;22.40;43.00;;;;;;1859848;77;21560;-35
2021/10/18 04:12:14;;;;;;;8.90;4.90;;;22.40;43.00;;;;;;1859731;77;21089;-35
2021/10/18 04:14:41;;;;;;;8.25;4.42;;;22.40;42.80;;;;;;1859901;77;21643;-32
2021/10/18 04:17:09;;;;;;;7.70;4.62;;;22.40;42.60;;;;;;1859706;77;21029;-33
2021/10/18 04:19:36;;;;;;;7.17;4.22;;;22.40;42.60;;;;;;1859698;77;21130;-34
2021/10/18 04:22:04;;;;;;;12.63;4.20;;;22.40;42.80;;;;;;1859768;77;21518;-33
2021/10/18 04:24:32;;;;;;;8.35;4.10;;;22.40;42.70;;;;;;1859793;77;21585;-32
2021/10/18 04:26:59;;;;;;;11.40;4.58;;;22.40;42.70;;;;;;1859723;77;21092;-32
2021/10/18 04:29:27;;;;;;;8.15;5.33;;;22.40;42.70;;;;;;1859761;77;21080;-33
2021/10/18 04:31:58;;;;;;;13.20;4.17;;;22.40;42.80;;;;;;1859812;77;21612;-34
2021/10/18 04:34:24;;;;;;;14.73;4.30;;;22.40;42.80;;;;;;1859140;77;21475;-34
2021/10/18 04:36:51;;;;;;;12.15;4.72;;;22.40;42.90;;;;;;1859645;77;21167;-33
2021/10/18 04:39:18;;;;;;;9.05;3.85;;;22.40;42.90;;;;;;1859680;77;21070;-33
2021/10/18 04:41:46;;;;;;;8.50;4.08;;;22.40;42.90;;;;;;1859700;77;21150;-31
2021/10/18 04:44:14;;;;;;;8.28;4.03;;;22.50;43.00;;;;;;1859756;77;21065;-32
2021/10/18 04:46:41;;;;;;;7.10;4.28;;;22.50;43.00;;;;;;1859709;77;21108;-32
2021/10/18 04:49:10;;;;;;;6.83;3.75;;;22.50;42.90;;;;;;1859839;77;21551;-33
2021/10/18 04:51:38;;;;;;;8.73;4.08;;;22.50;42.80;;;;;;1859793;77;21546;-33
2021/10/18 04:54:05;;;;;;;9.55;4.17;;;22.50;42.70;;;;;;1859725;77;21549;-33
2021/10/18 04:56:33;;;;;;;9.75;4.15;;;22.50;42.70;;;;;;1859656;77;21077;-34
2021/10/18 04:59:01;;;;;;;13.28;4.30;;;22.50;42.90;;;;;;1859849;77;21084;-35
2021/10/18 05:01:28;;;;;;;8.55;3.98;;;22.50;42.90;;;;;;1860045;77;21510;-34
2021/10/18 05:03:55;;;;;;;7.40;4.20;;;22.50;42.70;;;;;;1859656;77;21021;-32
2021/10/18 05:06:23;;;;;;;6.70;4.10;;;22.60;42.80;;;;;;1859807;77;21514;-33
2021/10/18 05:08:53;;;;;;;8.45;4.70;;;22.50;42.70;;;;;;1859723;76;21069;-33
2021/10/18 05:11:21;;;;;;;10.68;6.22;;;22.60;42.60;;;;;;1859429;77;21521;-32
2021/10/18 05:13:48;;;;;;;9.83;5.78;;;22.50;42.30;;;;;;1859686;77;21585;-33
2021/10/18 05:16:16;;;;;;;13.53;5.53;;;22.50;42.40;;;;;;1859726;77;21620;-32
2021/10/18 05:18:44;;;;;;;12.98;4.83;;;22.50;42.50;;;;;;1859727;77;21509;-34
2021/10/18 05:21:12;;;;;;;11.20;5.25;;;22.50;42.60;;;;;;1859843;77;21112;-34
2021/10/18 05:23:39;;;;;;;6.83;4.30;;;22.50;42.70;;;;;;1859742;77;21111;-34
2021/10/18 05:26:07;;;;;;;12.47;4.20;;;22.50;42.80;;;;;;1859816;77;21542;-33
2021/10/18 05:28:35;;;;;;;8.10;4.00;;;22.50;42.90;;;;;;1859841;77;21077;-33
2021/10/18 05:31:02;;;;;;;11.50;4.25;;;22.50;42.80;;;;;;1859805;77;21088;-33
2021/10/18 05:33:30;;;;;;;8.98;4.47;;;22.60;42.80;;;;;;1859724;77;21127;-33
2021/10/18 05:35:57;;;;;;;9.03;4.42;;;22.50;42.80;;;;;;1859814;77;21474;-33
2021/10/18 05:38:25;;;;;;;9.78;3.80;;;22.50;42.80;;;;;;1859699;77;21057;-32
2021/10/18 05:40:53;;;;;;;12.25;4.42;;;22.50;42.70;;;;;;1859780;77;21513;-34
2021/10/18 05:43:20;;;;;;;12.03;4.85;;;22.50;42.80;;;;;;1859713;77;21065;-33
2021/10/18 05:45:48;;;;;;;13.88;4.53;;;22.50;42.90;;;;;;1859670;77;21585;-33
2021/10/18 05:48:15;;;;;;;10.05;4.20;;;22.50;42.90;;;;;;1859817;77;21065;-33
2021/10/18 05:50:47;;;;;;;11.53;4.42;;;22.50;42.80;;;;;;1859680;77;21138;-33
2021/10/18 05:53:13;;;;;;;8.35;3.90;;;22.50;42.80;;;;;;1858462;77;21099;-33
2021/10/18 05:55:40;;;;;;;9.53;5.97;;;22.60;42.80;;;;;;1859630;77;21135;-33
2021/10/18 05:58:09;;;;;;;9.85;5.12;;;22.60;42.60;;;;;;1859716;77;21491;-34
2021/10/18 06:00:39;;;;;;;11.15;5.72;;;22.50;42.50;;;;;;1859647;77;21577;-34
2021/10/18 06:03:07;;;;;;;12.73;5.78;;;22.50;42.50;;;;;;1859711;77;21165;-32
2021/10/18 06:05:46;;;;;;;13.58;6.00;;;22.50;42.50;;;;;;1859645;77;21147;-32
2021/10/18 06:08:07;;;;;;;17.10;5.50;;;22.50;42.50;;;;;;1856505;76;21092;-32
2021/10/18 06:10:35;;;;;;;10.50;4.95;;;22.50;42.60;;;;;;1859850;77;21522;-32
2021/10/18 06:13:03;;;;;;;12.30;4.87;;;22.50;42.70;;;;;;1859712;77;21526;-32
2021/10/18 06:15:31;;;;;;;12.03;4.78;;;22.50;42.80;;;;;;1859673;77;21157;-32
2021/10/18 06:18:13;;;;;;;11.28;4.30;;;22.50;42.70;;;;;;1859479;77;21045;-32
2021/10/18 06:20:44;;;;;;;10.98;5.35;;;22.50;42.60;;;;;;1859892;77;21108;-33
2021/10/18 06:23:13;;;;;;;7.75;4.83;;;22.40;43.20;;;;;;1859810;77;21057;-33
2021/10/18 06:25:41;;;;;;;12.47;4.85;;;22.40;42.70;;;;;;1859662;77;21536;-32
2021/10/18 06:28:08;;;;;;;10.82;4.90;;;22.40;42.60;;;;;;1859635;77;21131;-32
2021/10/18 06:30:36;;;;;;;11.08;4.83;;;22.40;42.80;;;;;;1859423;77;21139;-32
2021/10/18 06:33:04;;;;;;;13.28;4.62;;;22.40;43.00;;;;;;1859570;77;21526;-32
2021/10/18 06:35:33;;;;;;;10.72;5.50;;;22.50;42.90;;;;;;1859591;77;21608;-32
2021/10/18 06:38:00;;;;;;;8.35;4.33;;;22.50;42.80;;;;;;1859615;77;21511;-32
2021/10/18 06:40:28;;;;;;;9.25;4.58;;;22.50;42.70;;;;;;1859667;77;21530;-32
2021/10/18 06:42:56;;;;;;;7.75;5.05;;;22.50;42.60;;;;;;1859649;77;21516;-32
2021/10/18 06:45:23;;;;;;;13.90;5.35;;;22.50;42.50;;;;;;1859415;77;21143;-32
2021/10/18 06:47:51;;;;;;;9.48;4.78;;;22.50;42.60;;;;;;1859588;77;21498;-32
2021/10/18 06:50:20;;;;;;;10.43;5.00;;;22.50;42.50;;;;;;1859561;77;21049;-33
2021/10/18 06:52:48;;;;;;;13.38;5.30;;;22.50;42.50;;;;;;1855244;77;21151;-33
2021/10/18 06:55:17;;;;;;;8.45;5.10;;;22.50;42.70;;;;;;1850658;77;21506;-33
2021/10/18 06:57:44;;;;;;;13.58;5.75;;;22.50;42.60;;;;;;1850391;77;21109;-33
2021/10/18 07:00:12;;;;;;;12.75;6.00;;;22.50;42.60;;;;;;1850839;77;21112;-35
2021/10/18 07:02:40;;;;;;;13.78;6.67;;;22.50;42.60;;;;;;1850838;77;21521;-32
2021/10/18 07:05:09;;;;;;;13.55;6.62;;;22.50;42.40;;;;;;1850834;77;21503;-33
2021/10/18 07:07:39;;;;;;;11.48;6.20;;;22.50;42.40;;;;;;1850758;76;21069;-33
2021/10/18 07:10:07;;;;;;;14.35;6.95;;;22.50;42.20;;;;;;1850780;77;21131;-33
2021/10/18 07:12:36;;;;;;;15.88;6.10;;;22.50;42.30;;;;;;1850756;77;21511;-33
2021/10/18 07:15:04;;;;;;;11.28;5.58;;;22.50;42.60;;;;;;1850781;77;21172;-32
2021/10/18 07:17:32;;;;;;;16.30;6.25;;;22.50;42.70;;;;;;1850918;77;21475;-33
2021/10/18 07:20:03;;;;;;;16.50;6.70;;;22.50;42.60;;;;;;1850857;77;21093;-32
2021/10/18 07:22:36;;;;;;;14.95;5.40;;;22.50;43.20;;;;;;1850963;77;21099;-32
2021/10/18 07:25:00;;;;;;;9.73;6.42;;;22.50;42.70;;;;;;1849773;77;22384;-32
2021/10/18 07:27:27;;;;;;;10.00;6.12;;;22.50;42.60;;;;;;1850799;77;21483;-32
2021/10/18 07:29:56;;;;;;;16.23;5.90;;;22.50;42.40;;;;;;1850893;77;21607;-32
2021/10/18 07:32:25;;;;;;;16.50;6.47;;;22.50;42.70;;;;;;1850929;77;21050;-33
2021/10/18 07:34:55;;;;;;;12.28;5.95;;;22.50;42.70;;;;;;1850858;77;21538;-33
2021/10/18 07:37:26;;;;;;;16.32;6.05;;;22.50;42.60;;;;;;1850358;77;21160;-32
2021/10/18 07:39:52;;;;;;;15.98;6.35;;;22.50;42.70;;;;;;1849769;77;21081;-33
2021/10/18 07:42:19;;;;;;;13.93;6.60;;;22.50;42.70;;;;;;1850802;77;21128;-32
2021/10/18 07:44:47;;;;;;;12.63;6.10;;;22.50;42.80;;;;;;1850881;77;21471;-33
2021/10/18 07:47:14;;;;;;;14.87;5.70;;;22.50;42.60;;;;;;1850881;77;21538;-32
2021/10/18 07:49:42;;;;;;;10.10;6.28;;;22.50;42.60;;;;;;1850805;77;21112;-33
2021/10/18 07:52:13;;;;;;;15.75;7.15;;;22.50;42.60;;;;;;1850632;77;21595;-32
2021/10/18 07:54:41;;;;;;;13.60;6.90;;;22.50;42.40;;;;;;1850686;77;21077;-33
2021/10/18 07:57:09;;;;;;;11.35;6.75;;;22.50;42.40;;;;;;1850736;77;21525;-32
2021/10/18 07:59:37;;;;;;;15.43;6.97;;;22.50;42.40;;;;;;1850858;77;21515;-32
2021/10/18 08:02:08;;;;;;;16.50;6.70;;;22.50;42.50;;;;;;1850911;77;21523;-33
2021/10/18 08:04:39;;;;;;;17.30;6.78;;;22.50;42.70;;;;;;1850903;77;21054;-33
2021/10/18 08:07:06;;;;;;;12.45;5.95;;;22.50;42.60;;;;;;1850713;76;21168;-33
2021/10/18 08:09:34;;;;;;;11.33;5.47;;;22.50;42.80;;;;;;1851008;77;21143;-33
2021/10/18 08:12:02;;;;;;;13.32;6.00;;;22.50;42.60;;;;;;1850950;77;21533;-33
2021/10/18 08:14:30;;;;;;;9.98;5.83;;;22.50;42.60;;;;;;1850783;77;21544;-39
2021/10/18 08:17:04;;;;;;;11.38;5.47;;;22.50;42.60;;;;;;1850771;77;21522;-42
2021/10/18 08:19:28;;;;;;;11.68;6.33;;;22.50;42.70;;;;;;1849621;77;21139;-33
2021/10/18 08:21:56;;;;;;;12.05;6.08;;;22.60;42.70;;;;;;1850839;77;21562;-40
2021/10/18 08:24:23;;;;;;;14.33;5.97;;;22.50;42.80;;;;;;1850890;77;21065;-33
2021/10/18 08:26:51;;;;;;;10.15;5.55;;;22.50;42.70;;;;;;1850841;77;21502;-34
2021/10/18 08:29:18;;;;;;;9.73;6.28;;;22.60;42.70;;;;;;1850779;77;21089;-35
2021/10/18 08:31:46;;;;;;;12.20;7.58;;;22.50;42.70;;;;;;1850693;77;21154;-33
2021/10/18 08:34:13;;;;;;;12.43;8.80;;;22.50;42.50;;;;;;1850841;77;21062;-34
2021/10/18 08:36:41;;;;;;;12.95;8.70;;;22.50;42.40;;;;;;1850797;77;21077;-34
2021/10/18 08:41:57;;;;;;;13.28;6.70;;;22.50;42.50;;;;;;1850746;77;21538;-31
2021/10/18 08:44:23;;;;;;;12.68;7.00;;;22.50;42.70;;;;;;1850392;77;21632;-34
2021/10/18 08:46:53;;;;;;;10.58;6.53;;;22.50;42.70;;;;;;1850789;77;21081;-34
2021/10/18 08:49:23;;;;;;;13.00;6.45;;;22.50;42.70;;;;;;1850628;77;21532;-34
2021/10/18 08:51:50;;;;;;;15.95;6.67;;;22.50;42.80;;;;;;1850799;77;21576;-34
2021/10/18 08:54:18;;;;;;;20.70;7.12;;;22.50;43.00;;;;;;1857053;77;21514;-33
2021/10/18 08:56:45;;;;;;;16.05;6.58;;;22.50;43.20;;;;;;1859664;77;21136;-35
2021/10/18 08:59:13;;;;;;;12.70;5.50;;;22.50;43.00;;;;;;1859734;77;21082;-35
2021/10/18 09:01:48;;;;;;;9.30;5.55;;;22.50;42.90;;;;;;1859729;77;21135;-35
2021/10/18 09:04:26;;;;;;;11.28;5.70;;;22.50;42.90;;;;;;1859697;77;21197;-36
2021/10/18 09:06:56;;;;;;;11.25;6.08;;;22.50;42.80;;;;;;1859666;76;21076;-33
2021/10/18 09:09:25;;;;;;;16.77;7.75;;;22.50;42.80;;;;;;1858479;77;21061;-33
2021/10/18 09:11:54;;;;;;;14.05;7.10;;;22.50;42.80;;;;;;1859700;77;21081;-34
2021/10/18 09:14:22;;;;;;;14.63;6.90;;;22.60;42.90;;;;;;1859709;77;21081;-33
2021/10/18 09:16:49;;;;;;;10.60;6.60;;;22.50;42.90;;;;;;1859637;77;21514;-33
2021/10/18 09:19:24;;;;;;;14.53;7.08;;;22.50;43.00;;;;;;1859639;77;21123;-34
2021/10/18 09:21:59;;;;;;;9.23;6.70;;;22.50;42.90;;;;;;1859714;77;21178;-34
2021/10/18 09:24:39;;;;;;;12.35;6.42;;;22.50;43.00;;;;;;1859688;77;21085;-33
2021/10/18 09:27:12;;;;;;;10.03;6.60;;;22.50;43.00;;;;;;1859696;77;21042;-34
2021/10/18 09:29:45;;;;;;;11.83;6.87;;;22.50;43.00;;;;;;1858924;77;21049;-34
2021/10/18 09:32:23;;;;;;;12.78;6.42;;;22.50;43.00;;;;;;1859750;77;21112;-34
2021/10/18 09:34:51;;;;;;;9.93;6.90;;;22.50;43.00;;;;;;1858895;77;21088;-34
2021/10/18 09:37:18;;;;;;;16.15;8.25;;;22.50;43.10;;;;;;1859753;77;21142;-32
2021/10/18 09:39:48;;;;;;;13.58;7.33;;;22.50;43.00;;;;;;1859703;77;21123;-34
2021/10/18 09:42:17;;;;;;;11.05;6.78;;;22.60;42.90;;;;;;1858541;77;21580;-34
2021/10/18 09:45:19;;;;;;;10.15;6.95;;;22.60;42.90;;;;;;1859662;77;21029;-33
2021/10/18 10:52:51;;;;;;;11.35;6.60;;;22.50;43.60;;;;;;1851016;77;21502;-34
2021/10/18 10:55:22;;;;;;;12.73;6.47;;;22.50;43.60;;;;;;1855981;77;21202;-33
2021/10/18 10:57:53;;;;;;;12.28;6.62;;;22.50;43.70;;;;;;1859931;77;21076;-32
2021/10/18 11:00:37;;;;;;;9.50;6.35;;;22.60;43.70;;;;;;1859367;77;21205;-33
2021/10/18 11:04:23;;;;;;;12.40;7.90;;;22.60;43.50;;;;;;1859929;77;21126;-32
2021/10/18 11:06:03;;;;;;;9.83;6.95;;;22.60;43.50;;;;;;1826012;77;21053;-33
2021/10/18 11:08:36;;;;;;;10.60;7.80;;;22.60;43.40;;;;;;1859797;76;21586;-34
2021/10/18 11:11:18;;;;;;;13.70;7.70;;;22.60;43.40;;;;;;1859887;77;21463;-33
2021/10/18 11:13:59;;;;;;;10.28;7.10;;;22.60;43.40;;;;;;1858729;77;21544;-34
2021/10/18 11:16:28;;;;;;;14.38;7.08;;;22.70;43.40;;;;;;1859866;77;21163;-34
2021/10/18 11:18:58;;;;;;;12.07;7.15;;;22.70;43.50;;;;;;1859949;77;21013;-33
2021/10/18 11:21:28;;;;;;;13.90;7.00;;;22.70;43.40;;;;;;1858726;77;21127;-32
2021/10/18 11:24:08;;;;;;;12.13;6.62;;;22.70;43.40;;;;;;1859963;77;21547;-33
2021/10/18 11:26:38;;;;;;;15.55;6.80;;;22.70;43.40;;;;;;1859933;77;21139;-33
2021/10/18 11:29:08;;;;;;;11.83;6.60;;;22.80;43.50;;;;;;1859294;77;21147;-34
2021/10/18 11:31:37;;;;;;;12.45;6.40;;;22.80;43.40;;;;;;1859885;77;21014;-34
2021/10/18 11:34:08;;;;;;;13.13;6.80;;;22.80;43.30;;;;;;1859984;77;21199;-34
2021/10/18 11:36:39;;;;;;;11.22;5.95;;;22.80;43.20;;;;;;1860083;77;21104;-34
2021/10/18 11:39:24;;;;;;;12.35;6.65;;;22.80;43.20;;;;;;1858474;77;21181;-33
2021/10/18 11:42:10;;;;;;;12.40;5.45;;;22.80;43.10;;;;;;1859869;77;21178;-34
2021/10/18 11:44:43;;;;;;;10.35;5.92;;;22.80;43.10;;;;;;1859785;77;21135;-34
2021/10/18 11:47:28;;;;;;;8.75;6.30;;;22.80;43.10;;;;;;1859822;77;21482;-33
2021/10/18 11:50:15;;;;;;;20.55;6.20;;;22.80;43.20;;;;;;1859745;77;21186;-35
2021/10/18 11:52:50;;;;;;;10.43;5.97;;;22.80;43.40;;;;;;1859890;77;21565;-33
2021/10/18 11:55:36;;;;;;;11.97;6.00;;;22.80;43.30;;;;;;1859715;77;21100;-33
2021/10/18 11:58:05;;;;;;;12.03;5.62;;;22.80;43.30;;;;;;1858708;77;21508;-31
2021/10/18 12:00:43;;;;;;;11.25;6.40;;;22.80;43.20;;;;;;1859828;77;21174;-33
2021/10/18 12:03:16;;;;;;;14.15;5.45;;;22.90;43.30;;;;;;1859831;77;21529;-31
2021/10/18 12:05:45;;;;;;;9.78;5.65;;;22.90;43.20;;;;;;1859470;77;21085;-32
2021/10/18 12:08:15;;;;;;;8.48;5.30;;;22.90;43.20;;;;;;1859820;76;21426;-31
2021/10/18 12:10:44;;;;;;;10.00;5.72;;;22.90;43.10;;;;;;1859313;77;21116;-31
2021/10/18 12:13:26;;;;;;;11.43;6.42;;;22.90;42.90;;;;;;1859591;77;21143;-32
2021/10/18 12:16:09;;;;;;;10.55;5.97;;;22.90;42.80;;;;;;1859576;77;21529;-32
2021/10/18 12:18:51;;;;;;;11.83;5.75;;;22.90;42.80;;;;;;1859565;77;21053;-33
2021/10/18 12:21:27;;;;;;;11.45;6.30;;;22.90;43.10;;;;;;1859021;77;21494;-33
2021/10/18 12:24:02;;;;;;;13.08;5.67;;;22.90;43.00;;;;;;1859945;77;21068;-34
2021/10/18 12:26:52;;;;;;;9.95;5.67;;;22.90;43.20;;;;;;1859992;77;21064;-34
2021/10/18 12:29:23;;;;;;;11.03;5.83;;;22.90;43.20;;;;;;1859758;77;21546;-34
2021/10/18 12:31:51;;;;;;;10.43;5.75;;;22.90;43.30;;;;;;1860052;77;21181;-34
2021/10/18 12:34:22;;;;;;;11.00;5.95;;;22.90;43.30;;;;;;1859850;77;21523;-33
2021/10/18 12:37:06;;;;;;;15.05;6.55;;;22.90;43.10;;;;;;1860230;77;21229;-34
2021/10/18 12:39:49;;;;;;;9.78;6.40;;;23.00;43.30;;;;;;1859811;77;21541;-33
2021/10/18 12:42:33;;;;;;;11.03;6.85;;;22.90;43.20;;;;;;1859853;77;21435;-33
2021/10/18 12:45:14;;;;;;;11.28;6.15;;;22.90;42.90;;;;;;1857743;77;21511;-32
2021/10/18 12:47:44;;;;;;;9.38;6.58;;;22.90;42.90;;;;;;1859987;77;21154;-34
2021/10/18 12:50:13;;;;;;;12.58;6.85;;;22.90;42.90;;;;;;1858967;77;21057;-34
2021/10/18 12:52:43;;;;;;;14.83;6.20;;;22.90;42.80;;;;;;1860017;77;21052;-34
2021/10/18 12:55:18;;;;;;;14.30;6.17;;;22.90;42.90;;;;;;1859799;77;21096;-33
2021/10/18 12:57:51;;;;;;;9.38;5.87;;;23.00;42.90;;;;;;1859892;77;21218;-33
2021/10/18 13:00:27;;;;;;;11.38;5.50;;;22.90;42.90;;;;;;1859880;77;21073;-34
2021/10/18 13:02:56;;;;;;;9.33;5.55;;;22.90;43.10;;;;;;1855084;77;21092;-34
2021/10/18 13:05:24;;;;;;;11.70;5.60;;;23.00;43.20;;;;;;1860020;77;21076;-34
2021/10/18 13:07:54;;;;;;;9.58;5.83;;;23.00;43.20;;;;;;1859861;76;21565;-34
2021/10/18 13:10:23;;;;;;;12.43;5.87;;;23.00;43.00;;;;;;1860102;77;21050;-34
2021/10/18 13:12:51;;;;;;;19.55;6.22;;;23.00;43.10;;;;;;1859961;77;21119;-34
2021/10/18 13:15:19;;;;;;;12.90;5.03;;;23.10;43.10;;;;;;1859943;77;21510;-34
2021/10/18 13:17:46;;;;;;;7.55;5.03;;;23.10;43.00;;;;;;1859834;77;21046;-34
2021/10/18 13:20:15;;;;;;;10.50;5.58;;;23.10;42.80;;;;;;1859820;77;21085;-33
2021/10/18 13:22:44;;;;;;;11.43;6.05;;;23.10;42.70;;;;;;1859939;77;21502;-34
2021/10/18 13:25:13;;;;;;;12.18;5.85;;;23.10;42.80;;;;;;1859671;77;21745;-34
2021/10/18 13:27:41;;;;;;;8.95;5.50;;;23.10;42.70;;;;;;1859868;77;21132;-34
2021/10/18 13:30:09;;;;;;;10.85;5.12;;;23.10;42.70;;;;;;1859905;77;21081;-34
2021/10/18 13:32:37;;;;;;;10.68;5.25;;;23.10;42.80;;;;;;1859889;77;21065;-33
2021/10/18 13:35:06;;;;;;;11.50;5.70;;;23.10;42.90;;;;;;1860055;77;21487;-34
2021/10/18 13:37:35;;;;;;;12.85;5.53;;;23.10;42.80;;;;;;1859933;77;21155;-33
2021/10/18 13:40:04;;;;;;;9.20;6.33;;;23.20;42.70;;;;;;1859923;77;21218;-33
2021/10/18 13:42:31;;;;;;;11.65;5.50;;;23.10;42.70;;;;;;1859908;77;21510;-33
2021/10/18 13:44:59;;;;;;;9.18;5.35;;;23.10;42.70;;;;;;1859952;77;21486;-33
2021/10/18 13:47:27;;;;;;;7.62;5.25;;;23.10;42.80;;;;;;1859916;77;21576;-34
2021/10/18 13:49:54;;;;;;;11.73;5.60;;;23.10;42.70;;;;;;1859995;77;21595;-34
2021/10/18 13:52:23;;;;;;;9.55;5.30;;;23.10;42.70;;;;;;1859961;77;21552;-33
2021/10/18 13:54:51;;;;;;;9.88;5.75;;;23.20;42.80;;;;;;1859894;77;21604;-33
2021/10/18 13:57:19;;;;;;;14.15;5.70;;;23.10;42.90;;;;;;1859948;77;21530;-33
2021/10/18 13:59:47;;;;;;;12.63;5.42;;;23.10;42.90;;;;;;1859924;77;21086;-33